sensor_id;sensor_type;location;lat;lon;timestamp;pressure;altitude;pressure_sealevel;temperature;humidity
26839;BME280;40088;51.214;6.786;2023-05-23T00:06:20;101416.44;;;18.82;63.39
26839;BME280;40088;51.214;6.786;2023-05-23T00:16:21;101409.16;;;18.81;63.43
26839;BME280;40088;51.214;6.786;2023-05-23T00:26:21;101408.13;;;18.82;63.30
26839;BME280;40088;51.214;6.786;2023-05-23T00:36:23;101406.41;;;18.81;63.37
26839;BME280;40088;51.214;6.786;2023-05-23T00:46:23;101422.97;;;18.81;63.53
26839;BME280;40088;51.214;6.786;2023-05-23T00:56:23;101431.25;;;18.81;63.35
26839;BME280;40088;51.214;6.786;2023-05-23T01:06:25;101455.09;;;18.82;63.23
26839;BME280;40088;51.214;6.786;2023-05-23T01:16:54;101451.44;;;18.81;63.55
26839;BME280;40088;51.214;6.786;2023-05-23T01:27:08;101447.81;;;18.81;63.42
26839;BME280;40088;51.214;6.786;2023-05-23T01:37:11;101450.59;;;18.81;63.24
26839;BME280;40088;51.214;6.786;2023-05-23T01:47:14;101456.09;;;18.81;63.38
26839;BME280;40088;51.214;6.786;2023-05-23T01:57:14;101443.34;;;18.80;63.31
26839;BME280;40088;51.214;6.786;2023-05-23T02:07:15;101456.09;;;18.81;63.10
26839;BME280;40088;51.214;6.786;2023-05-23T02:17:15;101458.00;;;18.80;63.22
26839;BME280;40088;51.214;6.786;2023-05-23T02:27:16;101455.25;;;18.80;63.32
26839;BME280;40088;51.214;6.786;2023-05-23T02:37:16;101462.47;;;18.81;63.15
26839;BME280;40088;51.214;6.786;2023-05-23T02:47:16;101476.28;;;18.81;63.14
26839;BME280;40088;51.214;6.786;2023-05-23T02:57:17;101483.72;;;18.81;63.09
26839;BME280;40088;51.214;6.786;2023-05-23T03:07:17;101486.47;;;18.81;62.94
26839;BME280;40088;51.214;6.786;2023-05-23T03:17:17;101477.34;;;18.80;62.93
26839;BME280;40088;51.214;6.786;2023-05-23T03:27:17;101480.09;;;18.80;62.91
26839;BME280;40088;51.214;6.786;2023-05-23T03:37:18;101483.72;;;18.81;62.43
26839;BME280;40088;51.214;6.786;2023-05-23T03:47:18;101491.16;;;18.80;62.96
26839;BME280;40088;51.214;6.786;2023-05-23T03:57:18;101502.03;;;18.82;63.20
26839;BME280;40088;51.214;6.786;2023-05-23T04:07:18;101518.75;;;18.80;62.92
26839;BME280;40088;51.214;6.786;2023-05-23T04:17:19;101530.66;;;18.81;62.73
26839;BME280;40088;51.214;6.786;2023-05-23T04:27:20;101527.91;;;18.81;62.73
26839;BME280;40088;51.214;6.786;2023-05-23T04:37:21;101536.19;;;18.81;62.77
26839;BME280;40088;51.214;6.786;2023-05-23T04:47:24;101549.13;;;18.80;62.72
26839;BME280;40088;51.214;6.786;2023-05-23T04:57:27;101547.22;;;18.81;62.88
26839;BME280;40088;51.214;6.786;2023-05-23T05:07:27;101554.66;;;18.80;62.65
26839;BME280;40088;51.214;6.786;2023-05-23T05:17:28;101558.28;;;18.81;62.60
26839;BME280;40088;51.214;6.786;2023-05-23T05:27:29;101563.78;;;18.81;62.81
26839;BME280;40088;51.214;6.786;2023-05-23T05:37:29;101575.69;;;18.81;62.73
26839;BME280;40088;51.214;6.786;2023-05-23T05:47:29;101588.66;;;18.81;62.73
26839;BME280;40088;51.214;6.786;2023-05-23T05:57:30;101606.94;;;18.82;62.91
26839;BME280;40088;51.214;6.786;2023-05-23T06:07:30;101612.47;;;18.82;62.68
26839;BME280;40088;51.214;6.786;2023-05-23T06:17:30;101612.47;;;18.82;62.67
26839;BME280;40088;51.214;6.786;2023-05-23T06:27:31;101618.00;;;18.82;62.80
26839;BME280;40088;51.214;6.786;2023-05-23T06:37:31;101608.81;;;18.81;62.75
26839;BME280;40088;51.214;6.786;2023-05-23T06:47:31;101618.00;;;18.82;62.86
26839;BME280;40088;51.214;6.786;2023-05-23T06:57:31;101637.31;;;18.82;62.41
26839;BME280;40088;51.214;6.786;2023-05-23T07:07:32;101646.47;;;18.82;62.68
26839;BME280;40088;51.214;6.786;2023-05-23T07:17:32;101653.91;;;18.82;62.63
26839;BME280;40088;51.214;6.786;2023-05-23T07:27:32;101658.53;;;18.81;62.58
26839;BME280;40088;51.214;6.786;2023-05-23T07:37:32;101674.09;;;18.82;62.49
26839;BME280;40088;51.214;6.786;2023-05-23T07:47:33;101670.47;;;18.82;62.36
26839;BME280;40088;51.214;6.786;2023-05-23T07:57:33;101687.88;;;18.82;62.35
26839;BME280;40088;51.214;6.786;2023-05-23T08:07:33;101689.78;;;18.82;62.35
26839;BME280;40088;51.214;6.786;2023-05-23T08:17:35;101709.97;;;18.82;62.32
26839;BME280;40088;51.214;6.786;2023-05-23T08:27:35;101723.78;;;18.82;62.31
26839;BME280;40088;51.214;6.786;2023-05-23T08:37:35;101727.41;;;18.83;62.53
26839;BME280;40088;51.214;6.786;2023-05-23T08:47:36;101751.41;;;18.82;62.28
26839;BME280;40088;51.214;6.786;2023-05-23T08:57:38;101756.94;;;18.82;62.25
26839;BME280;40088;51.214;6.786;2023-05-23T09:07:46;101761.59;;;18.82;62.32
26839;BME280;40088;51.214;6.786;2023-05-23T09:17:50;101786.44;;;18.82;62.17
26839;BME280;40088;51.214;6.786;2023-05-23T09:27:51;101788.31;;;18.81;62.37
26839;BME280;40088;51.214;6.786;2023-05-23T09:37:52;101793.84;;;18.81;62.06
26839;BME280;40088;51.214;6.786;2023-05-23T09:47:55;101800.25;;;18.82;62.09
26839;BME280;40088;51.214;6.786;2023-05-23T09:57:58;101814.06;;;18.82;62.00
26839;BME280;40088;51.214;6.786;2023-05-23T10:08:00;101833.38;;;18.82;62.04
26839;BME280;40088;51.214;6.786;2023-05-23T10:18:03;101829.75;;;18.81;62.09
26839;BME280;40088;51.214;6.786;2023-05-23T10:28:04;101831.66;;;18.81;61.78
26839;BME280;40088;51.214;6.786;2023-05-23T10:48:42;101837.16;;;18.81;61.68
26839;BME280;40088;51.214;6.786;2023-05-23T10:58:43;101847.34;;;18.80;61.64
26839;BME280;40088;51.214;6.786;2023-05-23T11:08:43;101842.69;;;18.81;61.58
26839;BME280;40088;51.214;6.786;2023-05-23T11:18:45;101849.06;;;18.81;61.79
26839;BME280;40088;51.214;6.786;2023-05-23T11:28:55;101842.69;;;18.81;61.54
26839;BME280;40088;51.214;6.786;2023-05-23T11:39:01;101856.50;;;18.81;61.47
26839;BME280;40088;51.214;6.786;2023-05-23T11:49:09;101857.34;;;18.81;61.41
26839;BME280;40088;51.214;6.786;2023-05-23T11:59:09;101864.78;;;18.81;61.31
26839;BME280;40088;51.214;6.786;2023-05-23T12:09:10;101875.81;;;18.81;61.37
26839;BME280;40088;51.214;6.786;2023-05-23T12:19:11;101862.03;;;18.81;61.27
26839;BME280;40088;51.214;6.786;2023-05-23T12:29:12;101871.16;;;18.81;61.32
26839;BME280;40088;51.214;6.786;2023-05-23T12:39:12;101869.44;;;18.80;61.26
26839;BME280;40088;51.214;6.786;2023-05-23T12:49:12;101859.25;;;18.81;61.02
26839;BME280;40088;51.214;6.786;2023-05-23T12:59:13;101853.72;;;18.81;61.10
26839;BME280;40088;51.214;6.786;2023-05-23T13:09:13;101850.13;;;18.80;61.04
26839;BME280;40088;51.214;6.786;2023-05-23T13:19:13;101858.41;;;18.80;60.99
26839;BME280;40088;51.214;6.786;2023-05-23T13:29:13;101865.81;;;18.80;60.76
26839;BME280;40088;51.214;6.786;2023-05-23T13:39:14;101874.97;;;18.80;60.98
26839;BME280;40088;51.214;6.786;2023-05-23T13:49:14;101868.59;;;18.80;60.73
26839;BME280;40088;51.214;6.786;2023-05-23T13:59:15;101852.03;;;18.80;60.83
26839;BME280;40088;51.214;6.786;2023-05-23T14:09:20;101857.53;;;18.80;60.65
26839;BME280;40088;51.214;6.786;2023-05-23T14:19:20;101854.78;;;18.80;60.76
26839;BME280;40088;51.214;6.786;2023-05-23T14:29:20;101843.75;;;18.80;60.53
26839;BME280;40088;51.214;6.786;2023-05-23T14:39:21;101859.25;;;18.81;60.29
26839;BME280;40088;51.214;6.786;2023-05-23T14:49:21;101855.63;;;18.80;60.47
26839;BME280;40088;51.214;6.786;2023-05-23T14:59:21;101857.53;;;18.80;60.25
26839;BME280;40088;51.214;6.786;2023-05-23T15:09:22;101845.44;;;18.81;60.37
26839;BME280;40088;51.214;6.786;2023-05-23T15:19:22;101839.06;;;18.80;60.30
26839;BME280;40088;51.214;6.786;2023-05-23T15:29:24;101838.22;;;18.80;60.16
26839;BME280;40088;51.214;6.786;2023-05-23T15:39:25;101841.84;;;18.80;59.94
26839;BME280;40088;51.214;6.786;2023-05-23T15:49:26;101846.50;;;18.80;59.84
26839;BME280;40088;51.214;6.786;2023-05-23T15:59:26;101840.13;;;18.79;60.05
26839;BME280;40088;51.214;6.786;2023-05-23T16:09:27;101845.66;;;18.79;60.07
26839;BME280;40088;51.214;6.786;2023-05-23T16:19:27;101847.34;;;18.80;60.14
26839;BME280;40088;51.214;6.786;2023-05-23T16:29:27;101859.44;;;18.79;59.66
26839;BME280;40088;51.214;6.786;2023-05-23T16:39:28;101852.03;;;18.80;59.95
26839;BME280;40088;51.214;6.786;2023-05-23T16:49:28;101846.50;;;18.80;59.64
26839;BME280;40088;51.214;6.786;2023-05-23T16:59:28;101848.41;;;18.79;59.74
26839;BME280;40088;51.214;6.786;2023-05-23T17:09:28;101855.84;;;18.79;59.52
26839;BME280;40088;51.214;6.786;2023-05-23T17:19:29;101852.03;;;18.80;59.50
26839;BME280;40088;51.214;6.786;2023-05-23T17:29:29;101855.84;;;18.79;59.36
26839;BME280;40088;51.214;6.786;2023-05-23T17:39:30;101872.41;;;18.79;59.49
26839;BME280;40088;51.214;6.786;2023-05-23T17:49:30;101864.13;;;18.79;59.46
26839;BME280;40088;51.214;6.786;2023-05-23T17:59:31;101872.41;;;18.79;59.26
26839;BME280;40088;51.214;6.786;2023-05-23T18:09:31;101876.03;;;18.79;59.27
26839;BME280;40088;51.214;6.786;2023-05-23T18:19:33;101883.44;;;18.79;59.08
26839;BME280;40088;51.214;6.786;2023-05-23T18:29:34;101881.72;;;18.78;59.10
26839;BME280;40088;51.214;6.786;2023-05-23T18:39:34;101888.09;;;18.78;59.12
26839;BME280;40088;51.214;6.786;2023-05-23T18:49:35;101898.28;;;18.78;59.12
26839;BME280;40088;51.214;6.786;2023-05-23T18:59:35;101903.81;;;18.78;58.90
26839;BME280;40088;51.214;6.786;2023-05-23T19:09:36;101926.78;;;18.78;58.70
26839;BME280;40088;51.214;6.786;2023-05-23T19:19:36;101960.75;;;18.79;58.52
26839;BME280;40088;51.214;6.786;2023-05-23T19:29:36;101959.91;;;18.78;58.21
26839;BME280;40088;51.214;6.786;2023-05-23T19:39:37;101955.25;;;18.79;58.28
26839;BME280;40088;51.214;6.786;2023-05-23T19:49:37;101952.66;;;18.77;58.02
26839;BME280;40088;51.214;6.786;2023-05-23T19:59:37;101986.66;;;18.78;57.93
26839;BME280;40088;51.214;6.786;2023-05-23T20:09:38;101995.09;;;18.76;57.72
26839;BME280;40088;51.214;6.786;2023-05-23T20:19:38;102007.91;;;18.77;57.63
26839;BME280;40088;51.214;6.786;2023-05-23T20:29:38;102033.59;;;18.78;57.43
26839;BME280;40088;51.214;6.786;2023-05-23T20:39:39;102031.91;;;18.77;57.45
26839;BME280;40088;51.214;6.786;2023-05-23T20:49:42;102040.19;;;18.77;57.37
26839;BME280;40088;51.214;6.786;2023-05-23T20:59:43;102040.19;;;18.77;57.42
26839;BME280;40088;51.214;6.786;2023-05-23T21:09:43;102044.81;;;18.76;57.19
26839;BME280;40088;51.214;6.786;2023-05-23T21:19:44;102058.63;;;18.76;57.15
26839;BME280;40088;51.214;6.786;2023-05-23T21:29:44;102071.56;;;18.76;56.96
26839;BME280;40088;51.214;6.786;2023-05-23T21:39:45;102063.28;;;18.76;56.77
26839;BME280;40088;51.214;6.786;2023-05-23T21:49:46;102055.00;;;18.76;56.60
26839;BME280;40088;51.214;6.786;2023-05-23T21:59:46;102061.56;;;18.74;56.75
26839;BME280;40088;51.214;6.786;2023-05-23T22:09:46;102058.81;;;18.74;56.41
26839;BME280;40088;51.214;6.786;2023-05-23T22:19:50;102063.47;;;18.74;56.60
26839;BME280;40088;51.214;6.786;2023-05-23T22:29:50;102064.31;;;18.74;56.46
26839;BME280;40088;51.214;6.786;2023-05-23T22:39:51;102062.59;;;18.73;56.28
26839;BME280;40088;51.214;6.786;2023-05-23T22:49:51;102050.69;;;18.73;56.16
26839;BME280;40088;51.214;6.786;2023-05-23T22:59:55;102060.88;;;18.72;56.30
26839;BME280;40088;51.214;6.786;2023-05-23T23:09:55;102064.50;;;18.73;55.95
26839;BME280;40088;51.214;6.786;2023-05-23T23:19:55;102071.94;;;18.72;56.09
26839;BME280;40088;51.214;6.786;2023-05-23T23:29:57;102080.22;;;18.72;55.76
26839;BME280;40088;51.214;6.786;2023-05-23T23:39:58;102076.59;;;18.72;55.88
26839;BME280;40088;51.214;6.786;2023-05-23T23:49:58;102065.56;;;18.72;55.80
26839;BME280;40088;51.214;6.786;2023-05-23T23:59:58;102079.34;;;18.72;56.01
